sensor_id;sensor_type;location;lat;lon;timestamp;pressure;altitude;pressure_sealevel;temperature;humidity
47913;BME280;33676;51.006;17.180;2023-04-01T00:02:22;98404.63;;;8.96;100.00
47913;BME280;33676;51.006;17.180;2023-04-01T00:04:55;98403.58;;;8.98;100.00
47913;BME280;33676;51.006;17.180;2023-04-01T00:07:33;98407.26;;;9.00;100.00
47913;BME280;33676;51.006;17.180;2023-04-01T00:10:10;98406.94;;;9.01;100.00
47913;BME280;33676;51.006;17.180;2023-04-01T00:12:41;98406.16;;;9.02;100.00
47913;BME280;33676;51.006;17.180;2023-04-01T00:15:16;98403.81;;;9.03;100.00
47913;BME280;33676;51.006;17.180;2023-04-01T00:17:46;98404.70;;;9.03;100.00
47913;BME280;33676;51.006;17.180;2023-04-01T00:20:17;98405.34;;;9.03;100.00
47913;BME280;33676;51.006;17.180;2023-04-01T00:22:48;98404.20;;;9.02;100.00
47913;BME280;33676;51.006;17.180;2023-04-01T00:25:18;98399.80;;;9.00;100.00
47913;BME280;33676;51.006;17.180;2023-04-01T00:27:50;98399.80;;;8.98;100.00
47913;BME280;33676;51.006;17.180;2023-04-01T00:30:19;98399.20;;;8.96;100.00
47913;BME280;33676;51.006;17.180;2023-04-01T00:32:52;98399.06;;;8.96;100.00
47913;BME280;33676;51.006;17.180;2023-04-01T00:35:22;98396.29;;;8.96;100.00
47913;BME280;33676;51.006;17.180;2023-04-01T00:37:51;98392.63;;;8.94;100.00
47913;BME280;33676;51.006;17.180;2023-04-01T00:40:34;98390.25;;;8.92;100.00
47913;BME280;33676;51.006;17.180;2023-04-01T00:43:13;98387.03;;;8.89;100.00
47913;BME280;33676;51.006;17.180;2023-04-01T00:45:43;98388.63;;;8.88;100.00
47913;BME280;33676;51.006;17.180;2023-04-01T00:48:24;98384.95;;;8.84;100.00
47913;BME280;33676;51.006;17.180;2023-04-01T00:51:19;98385.81;;;8.83;100.00
47913;BME280;33676;51.006;17.180;2023-04-01T00:53:51;98389.99;;;8.81;100.00
47913;BME280;33676;51.006;17.180;2023-04-01T00:56:30;98389.50;;;8.81;100.00
47913;BME280;33676;51.006;17.180;2023-04-01T00:59:11;98388.02;;;8.80;100.00
47913;BME280;33676;51.006;17.180;2023-04-01T01:01:41;98391.71;;;8.80;100.00
47913;BME280;33676;51.006;17.180;2023-04-01T01:04:29;98390.83;;;8.80;100.00
47913;BME280;33676;51.006;17.180;2023-04-01T01:13:09;98393.22;;;8.84;100.00
47913;BME280;33676;51.006;17.180;2023-04-01T01:15:58;98394.87;;;8.88;100.00
47913;BME280;33676;51.006;17.180;2023-04-01T01:27:16;98393.39;;;8.99;100.00
47913;BME280;33676;51.006;17.180;2023-04-01T01:35:46;98394.90;;;9.10;100.00
47913;BME280;33676;51.006;17.180;2023-04-01T01:38:21;98395.27;;;9.13;100.00
47913;BME280;33676;51.006;17.180;2023-04-01T01:40:52;98390.09;;;9.16;100.00
47913;BME280;33676;51.006;17.180;2023-04-01T01:43:30;98392.20;;;9.19;100.00
47913;BME280;33676;51.006;17.180;2023-04-01T01:46:06;98387.38;;;9.22;100.00
47913;BME280;33676;51.006;17.180;2023-04-01T01:48:37;98386.40;;;9.24;100.00
47913;BME280;33676;51.006;17.180;2023-04-01T01:51:07;98384.55;;;9.27;100.00
47913;BME280;33676;51.006;17.180;2023-04-01T01:53:36;98381.74;;;9.29;100.00
47913;BME280;33676;51.006;17.180;2023-04-01T01:56:05;98383.27;;;9.32;100.00
47913;BME280;33676;51.006;17.180;2023-04-01T01:58:39;98379.39;;;9.34;100.00
47913;BME280;33676;51.006;17.180;2023-04-01T02:01:20;98382.89;;;9.35;100.00
47913;BME280;33676;51.006;17.180;2023-04-01T02:03:52;98382.02;;;9.37;100.00
47913;BME280;33676;51.006;17.180;2023-04-01T02:06:24;98384.80;;;9.39;100.00
47913;BME280;33676;51.006;17.180;2023-04-01T02:09:03;98381.44;;;9.41;100.00
47913;BME280;33676;51.006;17.180;2023-04-01T02:11:52;98380.50;;;9.43;100.00
47913;BME280;33676;51.006;17.180;2023-04-01T02:15:03;98384.92;;;9.46;100.00
47913;BME280;33676;51.006;17.180;2023-04-01T02:17:39;98377.64;;;9.48;100.00
47913;BME280;33676;51.006;17.180;2023-04-01T02:20:20;98375.77;;;9.49;100.00
47913;BME280;33676;51.006;17.180;2023-04-01T02:22:53;98373.21;;;9.51;100.00
47913;BME280;33676;51.006;17.180;2023-04-01T02:25:36;98374.80;;;9.54;100.00
47913;BME280;33676;51.006;17.180;2023-04-01T02:28:07;98379.98;;;9.56;100.00
47913;BME280;33676;51.006;17.180;2023-04-01T02:30:40;98376.86;;;9.58;100.00
47913;BME280;33676;51.006;17.180;2023-04-01T02:33:10;98376.43;;;9.58;100.00
47913;BME280;33676;51.006;17.180;2023-04-01T02:35:40;98377.91;;;9.59;100.00
47913;BME280;33676;51.006;17.180;2023-04-01T02:38:08;98376.43;;;9.60;100.00
47913;BME280;33676;51.006;17.180;2023-04-01T02:40:51;98376.50;;;9.61;100.00
47913;BME280;33676;51.006;17.180;2023-04-01T02:43:19;98372.29;;;9.62;100.00
47913;BME280;33676;51.006;17.180;2023-04-01T02:45:49;98371.34;;;9.63;100.00
47913;BME280;33676;51.006;17.180;2023-04-01T02:48:18;98368.14;;;9.64;100.00
47913;BME280;33676;51.006;17.180;2023-04-01T02:50:47;98372.82;;;9.65;100.00
47913;BME280;33676;51.006;17.180;2023-04-01T02:53:16;98374.71;;;9.65;100.00
47913;BME280;33676;51.006;17.180;2023-04-01T02:55:45;98373.48;;;9.65;100.00
47913;BME280;33676;51.006;17.180;2023-04-01T02:58:14;98377.83;;;9.65;100.00
47913;BME280;33676;51.006;17.180;2023-04-01T03:00:43;98379.00;;;9.66;100.00
47913;BME280;33676;51.006;17.180;2023-04-01T03:03:13;98383.23;;;9.65;100.00
47913;BME280;33676;51.006;17.180;2023-04-01T03:05:41;98382.85;;;9.65;100.00
47913;BME280;33676;51.006;17.180;2023-04-01T03:08:10;98381.59;;;9.64;100.00
47913;BME280;33676;51.006;17.180;2023-04-01T03:10:39;98384.71;;;9.64;100.00
47913;BME280;33676;51.006;17.180;2023-04-01T03:13:08;98382.95;;;9.64;100.00
47913;BME280;33676;51.006;17.180;2023-04-01T03:15:37;98384.89;;;9.66;100.00
47913;BME280;33676;51.006;17.180;2023-04-01T03:18:05;98385.70;;;9.66;100.00
47913;BME280;33676;51.006;17.180;2023-04-01T03:20:34;98389.52;;;9.67;100.00
47913;BME280;33676;51.006;17.180;2023-04-01T03:23:02;98389.35;;;9.68;100.00
47913;BME280;33676;51.006;17.180;2023-04-01T03:25:31;98390.88;;;9.69;100.00
47913;BME280;33676;51.006;17.180;2023-04-01T03:28:00;98391.96;;;9.70;100.00
47913;BME280;33676;51.006;17.180;2023-04-01T03:30:29;98395.48;;;9.70;100.00
47913;BME280;33676;51.006;17.180;2023-04-01T03:32:59;98394.77;;;9.68;100.00
47913;BME280;33676;51.006;17.180;2023-04-01T03:35:28;98392.52;;;9.66;100.00
47913;BME280;33676;51.006;17.180;2023-04-01T03:37:58;98394.31;;;9.66;100.00
47913;BME280;33676;51.006;17.180;2023-04-01T03:40:26;98398.00;;;9.66;100.00
47913;BME280;33676;51.006;17.180;2023-04-01T03:42:55;98397.41;;;9.65;100.00
47913;BME280;33676;51.006;17.180;2023-04-01T03:45:24;98399.45;;;9.63;100.00
47913;BME280;33676;51.006;17.180;2023-04-01T03:47:53;98397.70;;;9.62;100.00
47913;BME280;33676;51.006;17.180;2023-04-01T03:50:22;98400.94;;;9.61;100.00
47913;BME280;33676;51.006;17.180;2023-04-01T03:52:50;98402.83;;;9.59;100.00
47913;BME280;33676;51.006;17.180;2023-04-01T03:55:19;98406.91;;;9.59;100.00
47913;BME280;33676;51.006;17.180;2023-04-01T03:57:48;98406.45;;;9.56;100.00
47913;BME280;33676;51.006;17.180;2023-04-01T04:00:17;98405.92;;;9.55;100.00
47913;BME280;33676;51.006;17.180;2023-04-01T04:02:45;98408.66;;;9.54;100.00
47913;BME280;33676;51.006;17.180;2023-04-01T04:05:14;98410.80;;;9.51;100.00
47913;BME280;33676;51.006;17.180;2023-04-01T04:07:43;98414.86;;;9.49;100.00
47913;BME280;33676;51.006;17.180;2023-04-01T04:10:11;98413.48;;;9.48;100.00
47913;BME280;33676;51.006;17.180;2023-04-01T04:12:40;98416.88;;;9.47;100.00
47913;BME280;33676;51.006;17.180;2023-04-01T04:15:09;98419.80;;;9.45;100.00
47913;BME280;33676;51.006;17.180;2023-04-01T04:17:38;98422.36;;;9.44;100.00
47913;BME280;33676;51.006;17.180;2023-04-01T04:20:07;98424.18;;;9.44;100.00
47913;BME280;33676;51.006;17.180;2023-04-01T04:22:36;98425.72;;;9.42;100.00
47913;BME280;33676;51.006;17.180;2023-04-01T04:25:06;98425.41;;;9.40;100.00
47913;BME280;33676;51.006;17.180;2023-04-01T04:27:35;98424.59;;;9.38;100.00
47913;BME280;33676;51.006;17.180;2023-04-01T04:30:06;98425.46;;;9.36;100.00
47913;BME280;33676;51.006;17.180;2023-04-01T04:32:35;98429.20;;;9.34;100.00
47913;BME280;33676;51.006;17.180;2023-04-01T04:35:04;98428.71;;;9.32;100.00
47913;BME280;33676;51.006;17.180;2023-04-01T04:37:34;98426.77;;;9.31;100.00
47913;BME280;33676;51.006;17.180;2023-04-01T04:40:03;98431.08;;;9.29;100.00
47913;BME280;33676;51.006;17.180;2023-04-01T04:42:32;98433.16;;;9.28;100.00
47913;BME280;33676;51.006;17.180;2023-04-01T04:45:00;98433.00;;;9.27;100.00
47913;BME280;33676;51.006;17.180;2023-04-01T04:47:29;98433.64;;;9.26;100.00
47913;BME280;33676;51.006;17.180;2023-04-01T04:49:57;98432.95;;;9.24;100.00
47913;BME280;33676;51.006;17.180;2023-04-01T04:52:26;98437.22;;;9.23;100.00
47913;BME280;33676;51.006;17.180;2023-04-01T04:54:56;98439.41;;;9.23;100.00
47913;BME280;33676;51.006;17.180;2023-04-01T04:57:26;98434.90;;;9.22;100.00
47913;BME280;33676;51.006;17.180;2023-04-01T04:59:57;98433.46;;;9.23;100.00
47913;BME280;33676;51.006;17.180;2023-04-01T05:02:29;98433.98;;;9.23;100.00
47913;BME280;33676;51.006;17.180;2023-04-01T05:05:00;98439.11;;;9.22;100.00
47913;BME280;33676;51.006;17.180;2023-04-01T05:07:29;98441.21;;;9.22;100.00
47913;BME280;33676;51.006;17.180;2023-04-01T05:09:58;98440.33;;;9.22;100.00
47913;BME280;33676;51.006;17.180;2023-04-01T05:12:30;98441.08;;;9.23;100.00
47913;BME280;33676;51.006;17.180;2023-04-01T05:15:04;98438.74;;;9.26;100.00
47913;BME280;33676;51.006;17.180;2023-04-01T05:17:35;98439.51;;;9.27;100.00
47913;BME280;33676;51.006;17.180;2023-04-01T05:20:08;98441.67;;;9.28;100.00
47913;BME280;33676;51.006;17.180;2023-04-01T05:22:40;98442.45;;;9.29;100.00
47913;BME280;33676;51.006;17.180;2023-04-01T05:25:09;98444.45;;;9.30;100.00
47913;BME280;33676;51.006;17.180;2023-04-01T05:27:41;98446.02;;;9.30;100.00
47913;BME280;33676;51.006;17.180;2023-04-01T05:30:12;98447.79;;;9.29;100.00
47913;BME280;33676;51.006;17.180;2023-04-01T05:32:43;98445.95;;;9.29;100.00
47913;BME280;33676;51.006;17.180;2023-04-01T05:35:15;98444.91;;;9.28;100.00
47913;BME280;33676;51.006;17.180;2023-04-01T05:37:44;98443.50;;;9.29;100.00
47913;BME280;33676;51.006;17.180;2023-04-01T05:40:14;98442.61;;;9.29;100.00
47913;BME280;33676;51.006;17.180;2023-04-01T05:42:45;98443.40;;;9.28;100.00
47913;BME280;33676;51.006;17.180;2023-04-01T05:45:15;98442.35;;;9.28;100.00
47913;BME280;33676;51.006;17.180;2023-04-01T05:47:47;98445.86;;;9.28;100.00
47913;BME280;33676;51.006;17.180;2023-04-01T05:50:17;98441.70;;;9.28;100.00
47913;BME280;33676;51.006;17.180;2023-04-01T05:52:48;98442.02;;;9.28;100.00
47913;BME280;33676;51.006;17.180;2023-04-01T05:55:18;98441.71;;;9.29;100.00
47913;BME280;33676;51.006;17.180;2023-04-01T05:57:50;98445.44;;;9.31;100.00
47913;BME280;33676;51.006;17.180;2023-04-01T06:00:20;98446.71;;;9.32;100.00
47913;BME280;33676;51.006;17.180;2023-04-01T06:02:51;98449.34;;;9.33;100.00
47913;BME280;33676;51.006;17.180;2023-04-01T06:05:28;98447.13;;;9.35;100.00
47913;BME280;33676;51.006;17.180;2023-04-01T06:08:15;98448.80;;;9.37;100.00
47913;BME280;33676;51.006;17.180;2023-04-01T06:11:16;98449.07;;;9.38;100.00
47913;BME280;33676;51.006;17.180;2023-04-01T06:20:39;98456.85;;;9.45;100.00
47913;BME280;33676;51.006;17.180;2023-04-01T06:30:55;98463.38;;;9.48;100.00
47913;BME280;33676;51.006;17.180;2023-04-01T06:37:16;98466.05;;;9.52;100.00
47913;BME280;33676;51.006;17.180;2023-04-01T06:40:26;98466.67;;;9.54;100.00
47913;BME280;33676;51.006;17.180;2023-04-01T06:46:30;98468.42;;;9.63;100.00
47913;BME280;33676;51.006;17.180;2023-04-01T06:52:23;98472.49;;;9.76;100.00
47913;BME280;33676;51.006;17.180;2023-04-01T06:55:32;98473.11;;;9.81;100.00
47913;BME280;33676;51.006;17.180;2023-04-01T06:58:17;98476.84;;;9.89;100.00
47913;BME280;33676;51.006;17.180;2023-04-01T07:00:51;98474.92;;;9.94;100.00
47913;BME280;33676;51.006;17.180;2023-04-01T07:03:47;98473.10;;;9.98;100.00
47913;BME280;33676;51.006;17.180;2023-04-01T07:06:35;98474.06;;;10.03;100.00
47913;BME280;33676;51.006;17.180;2023-04-01T07:09:37;98477.77;;;10.05;100.00
47913;BME280;33676;51.006;17.180;2023-04-01T07:12:19;98476.27;;;10.08;100.00
47913;BME280;33676;51.006;17.180;2023-04-01T07:14:53;98478.17;;;10.10;100.00
47913;BME280;33676;51.006;17.180;2023-04-01T07:17:28;98483.19;;;10.12;100.00
47913;BME280;33676;51.006;17.180;2023-04-01T07:25:59;98487.78;;;10.18;100.00
47913;BME280;33676;51.006;17.180;2023-04-01T07:28:31;98487.23;;;10.20;100.00
47913;BME280;33676;51.006;17.180;2023-04-01T07:36:51;98490.41;;;10.23;100.00
47913;BME280;33676;51.006;17.180;2023-04-01T07:39:58;98491.89;;;10.22;100.00
47913;BME280;33676;51.006;17.180;2023-04-01T07:45:48;98495.69;;;10.24;100.00
47913;BME280;33676;51.006;17.180;2023-04-01T07:48:36;98499.98;;;10.23;100.00
47913;BME280;33676;51.006;17.180;2023-04-01T07:51:15;98497.16;;;10.22;100.00
47913;BME280;33676;51.006;17.180;2023-04-01T07:54:06;98499.16;;;10.21;100.00
47913;BME280;33676;51.006;17.180;2023-04-01T08:00:04;98504.57;;;10.26;100.00
47913;BME280;33676;51.006;17.180;2023-04-01T08:05:40;98508.88;;;10.35;100.00
47913;BME280;33676;51.006;17.180;2023-04-01T08:12:13;98511.41;;;10.44;100.00
47913;BME280;33676;51.006;17.180;2023-04-01T08:15:15;98517.29;;;10.48;100.00
47913;BME280;33676;51.006;17.180;2023-04-01T08:18:02;98522.85;;;10.49;100.00
47913;BME280;33676;51.006;17.180;2023-04-01T08:20:48;98525.65;;;10.51;100.00
47913;BME280;33676;51.006;17.180;2023-04-01T08:23:33;98528.59;;;10.52;100.00
47913;BME280;33676;51.006;17.180;2023-04-01T08:26:35;98524.73;;;10.52;100.00
47913;BME280;33676;51.006;17.180;2023-04-01T08:29:20;98532.14;;;10.54;100.00
47913;BME280;33676;51.006;17.180;2023-04-01T08:32:17;98536.92;;;10.55;100.00
47913;BME280;33676;51.006;17.180;2023-04-01T08:34:58;98536.89;;;10.59;100.00
47913;BME280;33676;51.006;17.180;2023-04-01T08:37:35;98532.70;;;10.64;100.00
47913;BME280;33676;51.006;17.180;2023-04-01T08:40:37;98526.48;;;10.68;100.00
47913;BME280;33676;51.006;17.180;2023-04-01T08:47:05;98535.61;;;10.83;100.00
47913;BME280;33676;51.006;17.180;2023-04-01T08:49:45;98528.80;;;10.87;100.00
47913;BME280;33676;51.006;17.180;2023-04-01T08:52:26;98524.73;;;10.94;100.00
47913;BME280;33676;51.006;17.180;2023-04-01T08:55:29;98529.59;;;11.01;100.00
47913;BME280;33676;51.006;17.180;2023-04-01T09:01:26;98527.54;;;11.15;100.00
47913;BME280;33676;51.006;17.180;2023-04-01T09:07:28;98536.80;;;11.18;100.00
47913;BME280;33676;51.006;17.180;2023-04-01T09:16:24;98543.40;;;11.32;100.00
47913;BME280;33676;51.006;17.180;2023-04-01T09:19:41;98541.85;;;11.40;100.00
47913;BME280;33676;51.006;17.180;2023-04-01T09:22:44;98549.58;;;11.50;100.00
47913;BME280;33676;51.006;17.180;2023-04-01T09:29:26;98547.44;;;11.68;100.00
47913;BME280;33676;51.006;17.180;2023-04-01T09:38:29;98552.64;;;11.99;100.00
47913;BME280;33676;51.006;17.180;2023-04-01T09:41:26;98551.12;;;12.14;100.00
47913;BME280;33676;51.006;17.180;2023-04-01T09:44:06;98552.67;;;12.28;100.00
47913;BME280;33676;51.006;17.180;2023-04-01T09:52:48;98558.97;;;12.36;100.00
47913;BME280;33676;51.006;17.180;2023-04-01T10:06:27;98560.51;;;13.05;100.00
47913;BME280;33676;51.006;17.180;2023-04-01T10:14:03;98555.89;;;12.69;100.00
47913;BME280;33676;51.006;17.180;2023-04-01T10:36:54;98560.45;;;13.40;100.00
47913;BME280;33676;51.006;17.180;2023-04-01T10:40:22;98560.99;;;13.43;100.00
47913;BME280;33676;51.006;17.180;2023-04-01T10:44:14;98558.71;;;13.37;100.00
47913;BME280;33676;51.006;17.180;2023-04-01T10:50:54;98565.02;;;13.20;100.00
47913;BME280;33676;51.006;17.180;2023-04-01T10:54:03;98559.23;;;13.20;100.00
47913;BME280;33676;51.006;17.180;2023-04-01T10:57:02;98561.98;;;13.33;100.00
47913;BME280;33676;51.006;17.180;2023-04-01T11:10:08;98577.33;;;14.09;99.92
47913;BME280;33676;51.006;17.180;2023-04-01T11:14:15;98589.86;;;13.95;98.14
47913;BME280;33676;51.006;17.180;2023-04-01T11:17:35;98590.16;;;13.63;99.36
47913;BME280;33676;51.006;17.180;2023-04-01T11:23:44;98592.09;;;13.18;99.85
47913;BME280;33676;51.006;17.180;2023-04-01T11:32:53;98600.04;;;12.55;100.00
47913;BME280;33676;51.006;17.180;2023-04-01T11:44:24;98601.50;;;12.39;100.00
47913;BME280;33676;51.006;17.180;2023-04-01T11:51:07;98601.83;;;12.32;100.00
47913;BME280;33676;51.006;17.180;2023-04-01T11:54:03;98607.67;;;12.31;100.00
47913;BME280;33676;51.006;17.180;2023-04-01T12:03:47;98620.95;;;12.45;100.00
47913;BME280;33676;51.006;17.180;2023-04-01T12:06:45;98621.13;;;12.53;100.00
47913;BME280;33676;51.006;17.180;2023-04-01T12:09:28;98623.00;;;12.58;100.00
47913;BME280;33676;51.006;17.180;2023-04-01T12:12:38;98619.48;;;12.58;100.00
47913;BME280;33676;51.006;17.180;2023-04-01T12:29:07;98644.40;;;12.41;100.00
47913;BME280;33676;51.006;17.180;2023-04-01T12:32:09;98645.42;;;12.23;100.00
47913;BME280;33676;51.006;17.180;2023-04-01T12:35:20;98653.83;;;12.08;100.00
47913;BME280;33676;51.006;17.180;2023-04-01T12:42:00;98651.93;;;11.91;100.00
47913;BME280;33676;51.006;17.180;2023-04-01T12:44:29;98648.21;;;11.94;100.00
47913;BME280;33676;51.006;17.180;2023-04-01T12:48:03;98643.42;;;12.07;100.00
47913;BME280;33676;51.006;17.180;2023-04-01T12:52:13;98637.96;;;12.33;100.00
47913;BME280;33676;51.006;17.180;2023-04-01T12:55:06;98644.35;;;12.60;100.00
47913;BME280;33676;51.006;17.180;2023-04-01T13:01:37;98645.25;;;13.03;100.00
47913;BME280;33676;51.006;17.180;2023-04-01T13:08:14;98638.72;;;13.74;100.00
47913;BME280;33676;51.006;17.180;2023-04-01T13:19:08;98640.77;;;14.81;100.00
47913;BME280;33676;51.006;17.180;2023-04-01T13:21:54;98643.95;;;14.79;100.00
47913;BME280;33676;51.006;17.180;2023-04-01T13:40:04;98683.89;;;13.32;99.85
47913;BME280;33676;51.006;17.180;2023-04-01T13:42:57;98690.52;;;12.95;100.00
47913;BME280;33676;51.006;17.180;2023-04-01T13:46:09;98692.80;;;12.59;100.00
47913;BME280;33676;51.006;17.180;2023-04-01T14:05:23;98702.29;;;11.18;100.00
47913;BME280;33676;51.006;17.180;2023-04-01T14:21:23;98697.95;;;10.96;100.00
47913;BME280;33676;51.006;17.180;2023-04-01T14:24:31;98703.27;;;10.95;100.00
47913;BME280;33676;51.006;17.180;2023-04-01T14:27:56;98700.86;;;10.95;100.00
47913;BME280;33676;51.006;17.180;2023-04-01T14:34:29;98691.11;;;10.93;100.00
47913;BME280;33676;51.006;17.180;2023-04-01T14:40:41;98691.42;;;10.95;100.00
47913;BME280;33676;51.006;17.180;2023-04-01T14:43:48;98700.11;;;10.97;100.00
47913;BME280;33676;51.006;17.180;2023-04-01T14:47:03;98703.91;;;10.98;100.00
47913;BME280;33676;51.006;17.180;2023-04-01T14:49:41;98703.59;;;10.98;100.00
47913;BME280;33676;51.006;17.180;2023-04-01T14:52:25;98711.27;;;10.99;100.00
47913;BME280;33676;51.006;17.180;2023-04-01T14:54:57;98711.30;;;11.02;100.00
47913;BME280;33676;51.006;17.180;2023-04-01T14:57:31;98710.62;;;11.02;100.00
47913;BME280;33676;51.006;17.180;2023-04-01T15:00:20;98711.30;;;11.02;100.00
47913;BME280;33676;51.006;17.180;2023-04-01T15:03:15;98712.68;;;11.01;100.00
47913;BME280;33676;51.006;17.180;2023-04-01T15:11:57;98725.00;;;10.98;100.00
47913;BME280;33676;51.006;17.180;2023-04-01T15:15:02;98725.66;;;10.99;100.00
47913;BME280;33676;51.006;17.180;2023-04-01T15:17:52;98725.17;;;11.02;100.00
47913;BME280;33676;51.006;17.180;2023-04-01T15:24:24;98730.45;;;11.11;100.00
47913;BME280;33676;51.006;17.180;2023-04-01T15:27:32;98731.05;;;11.20;100.00
47913;BME280;33676;51.006;17.180;2023-04-01T15:30:45;98733.09;;;11.33;100.00
47913;BME280;33676;51.006;17.180;2023-04-01T15:42:50;98743.14;;;12.39;100.00
47913;BME280;33676;51.006;17.180;2023-04-01T15:45:51;98748.70;;;12.96;100.00
47913;BME280;33676;51.006;17.180;2023-04-01T15:48:55;98749.56;;;13.33;100.00
47913;BME280;33676;51.006;17.180;2023-04-01T15:54:20;98751.16;;;13.98;100.00
47913;BME280;33676;51.006;17.180;2023-04-01T16:03:24;98761.48;;;14.34;100.00
47913;BME280;33676;51.006;17.180;2023-04-01T16:06:14;98768.36;;;14.33;100.00
47913;BME280;33676;51.006;17.180;2023-04-01T16:09:00;98769.64;;;14.34;100.00
47913;BME280;33676;51.006;17.180;2023-04-01T16:12:19;98774.11;;;14.39;100.00
47913;BME280;33676;51.006;17.180;2023-04-01T16:24:33;98782.96;;;14.55;100.00
47913;BME280;33676;51.006;17.180;2023-04-01T16:27:18;98791.98;;;14.43;100.00
47913;BME280;33676;51.006;17.180;2023-04-01T16:33:28;98798.92;;;14.09;100.00
47913;BME280;33676;51.006;17.180;2023-04-01T16:36:33;98804.29;;;13.93;100.00
47913;BME280;33676;51.006;17.180;2023-04-01T16:39:26;98806.56;;;13.78;100.00
47913;BME280;33676;51.006;17.180;2023-04-01T16:42:31;98811.62;;;13.64;100.00
47913;BME280;33676;51.006;17.180;2023-04-01T16:47:49;98815.67;;;13.40;100.00
47913;BME280;33676;51.006;17.180;2023-04-01T16:50:29;98815.86;;;13.29;100.00
47913;BME280;33676;51.006;17.180;2023-04-01T16:53:19;98821.83;;;13.19;100.00
47913;BME280;33676;51.006;17.180;2023-04-01T16:58:42;98824.09;;;12.99;100.00
47913;BME280;33676;51.006;17.180;2023-04-01T17:01:27;98830.81;;;12.89;100.00
47913;BME280;33676;51.006;17.180;2023-04-01T17:04:06;98835.23;;;12.81;100.00
47913;BME280;33676;51.006;17.180;2023-04-01T17:06:53;98843.55;;;12.71;100.00
47913;BME280;33676;51.006;17.180;2023-04-01T17:10:02;98842.52;;;12.61;100.00
47913;BME280;33676;51.006;17.180;2023-04-01T17:12:56;98848.91;;;12.50;100.00
47913;BME280;33676;51.006;17.180;2023-04-01T17:21:52;98868.48;;;12.17;100.00
47913;BME280;33676;51.006;17.180;2023-04-01T17:25:07;98871.79;;;12.06;100.00
47913;BME280;33676;51.006;17.180;2023-04-01T17:28:27;98873.90;;;11.98;100.00
47913;BME280;33676;51.006;17.180;2023-04-01T17:32:12;98877.90;;;11.86;100.00
47913;BME280;33676;51.006;17.180;2023-04-01T17:35:13;98882.80;;;11.73;100.00
47913;BME280;33676;51.006;17.180;2023-04-01T17:38:14;98886.21;;;11.62;100.00
47913;BME280;33676;51.006;17.180;2023-04-01T17:41:51;98892.71;;;11.54;100.00
47913;BME280;33676;51.006;17.180;2023-04-01T17:44:32;98897.25;;;11.47;100.00
47913;BME280;33676;51.006;17.180;2023-04-01T17:47:25;98898.93;;;11.43;100.00
47913;BME280;33676;51.006;17.180;2023-04-01T17:50:24;98902.03;;;11.38;100.00
47913;BME280;33676;51.006;17.180;2023-04-01T17:53:07;98909.86;;;11.34;100.00
47913;BME280;33676;51.006;17.180;2023-04-01T17:55:59;98913.55;;;11.32;100.00
47913;BME280;33676;51.006;17.180;2023-04-01T17:58:55;98915.77;;;11.31;100.00
47913;BME280;33676;51.006;17.180;2023-04-01T18:01:51;98916.85;;;11.29;100.00
47913;BME280;33676;51.006;17.180;2023-04-01T18:04:48;98924.94;;;11.26;100.00
47913;BME280;33676;51.006;17.180;2023-04-01T18:13:29;98938.52;;;11.19;100.00
47913;BME280;33676;51.006;17.180;2023-04-01T18:19:46;98949.53;;;11.14;100.00
47913;BME280;33676;51.006;17.180;2023-04-01T18:25:21;98961.13;;;11.08;100.00
47913;BME280;33676;51.006;17.180;2023-04-01T18:28:39;98963.11;;;11.04;100.00
47913;BME280;33676;51.006;17.180;2023-04-01T18:30:55;98967.49;;;11.02;100.00
47913;BME280;33676;51.006;17.180;2023-04-01T18:33:49;98971.50;;;10.99;100.00
47913;BME280;33676;51.006;17.180;2023-04-01T18:36:46;98975.06;;;10.96;100.00
47913;BME280;33676;51.006;17.180;2023-04-01T18:39:23;98981.04;;;10.94;100.00
47913;BME280;33676;51.006;17.180;2023-04-01T18:42:27;98983.13;;;10.92;100.00
47913;BME280;33676;51.006;17.180;2023-04-01T18:50:57;98996.34;;;10.85;100.00
47913;BME280;33676;51.006;17.180;2023-04-01T18:56:38;99004.02;;;10.78;100.00
47913;BME280;33676;51.006;17.180;2023-04-01T18:59:25;99009.38;;;10.77;100.00
47913;BME280;33676;51.006;17.180;2023-04-01T19:02:27;99014.77;;;10.75;100.00
47913;BME280;33676;51.006;17.180;2023-04-01T19:05:05;99018.23;;;10.72;100.00
47913;BME280;33676;51.006;17.180;2023-04-01T19:10:40;99021.96;;;10.68;100.00
47913;BME280;33676;51.006;17.180;2023-04-01T19:19:34;99031.05;;;10.59;100.00
47913;BME280;33676;51.006;17.180;2023-04-01T19:22:42;99034.57;;;10.57;100.00
47913;BME280;33676;51.006;17.180;2023-04-01T19:25:32;99035.85;;;10.54;100.00
47913;BME280;33676;51.006;17.180;2023-04-01T19:30:59;99034.41;;;10.51;100.00
47913;BME280;33676;51.006;17.180;2023-04-01T19:33:57;99039.70;;;10.49;100.00
47913;BME280;33676;51.006;17.180;2023-04-01T19:36:47;99039.70;;;10.49;100.00
47913;BME280;33676;51.006;17.180;2023-04-01T19:40:06;99045.60;;;10.49;100.00
47913;BME280;33676;51.006;17.180;2023-04-01T19:45:46;99051.40;;;10.47;100.00
47913;BME280;33676;51.006;17.180;2023-04-01T19:48:43;99053.71;;;10.45;100.00
47913;BME280;33676;51.006;17.180;2023-04-01T19:54:24;99056.55;;;10.39;100.00
47913;BME280;33676;51.006;17.180;2023-04-01T20:00:15;99067.30;;;10.37;100.00
47913;BME280;33676;51.006;17.180;2023-04-01T20:03:34;99069.40;;;10.33;100.00
47913;BME280;33676;51.006;17.180;2023-04-01T20:06:35;99072.70;;;10.30;100.00
47913;BME280;33676;51.006;17.180;2023-04-01T20:13:00;99075.36;;;10.20;100.00
47913;BME280;33676;51.006;17.180;2023-04-01T20:15:54;99074.30;;;10.16;100.00
47913;BME280;33676;51.006;17.180;2023-04-01T20:21:27;99083.64;;;10.10;100.00